createdAt,value
2023-02-02T00:01:31.165Z,4.46
2023-02-02T00:04:37.646Z,4.52
2023-02-02T00:07:40.867Z,4.58
2023-02-02T00:10:44.826Z,4.69
2023-02-02T00:13:48.426Z,4.70
2023-02-02T00:16:53.509Z,4.67
2023-02-02T00:19:58.081Z,4.72
2023-02-02T00:23:01.610Z,4.73
2023-02-02T00:26:04.834Z,4.75
2023-02-02T00:29:11.123Z,4.85
2023-02-02T00:32:14.159Z,4.84
2023-02-02T00:35:18.702Z,4.88
2023-02-02T00:38:23.988Z,4.92
2023-02-02T00:41:27.331Z,4.91
2023-02-02T00:44:48.349Z,4.88
2023-02-02T00:47:51.633Z,4.92
2023-02-02T00:50:57.299Z,4.91
2023-02-02T00:54:00.425Z,4.88
2023-02-02T00:57:03.558Z,4.87
2023-02-02T01:00:12.764Z,4.85
2023-02-02T01:03:16.301Z,4.86
2023-02-02T01:06:23.959Z,4.83
2023-02-02T01:09:27.143Z,4.88
2023-02-02T01:12:36.757Z,4.83
2023-02-02T01:15:42.044Z,4.81
2023-02-02T01:18:45.382Z,4.79
2023-02-02T01:21:51.183Z,4.72
2023-02-02T01:24:56.561Z,4.71
2023-02-02T01:27:59.941Z,4.67
2023-02-02T01:31:11.983Z,4.65
2023-02-02T01:34:15.218Z,4.68
2023-02-02T01:37:19.624Z,4.63
2023-02-02T01:40:22.741Z,4.59
2023-02-02T01:43:29.663Z,4.53
2023-02-02T01:46:35.077Z,4.56
2023-02-02T01:49:39.027Z,4.61
2023-02-02T01:52:46.599Z,4.65
2023-02-02T01:55:53.407Z,4.68
2023-02-02T01:58:56.871Z,4.71
2023-02-02T02:02:01.083Z,4.73
2023-02-02T02:05:07.714Z,4.67
2023-02-02T02:08:19.083Z,4.64
2023-02-02T02:11:23.378Z,4.68
2023-02-02T02:14:44.388Z,4.71
2023-02-02T02:18:04.511Z,4.73
2023-02-02T02:21:55.995Z,4.78
2023-02-02T02:25:48.752Z,4.79
2023-02-02T02:29:25.591Z,4.88
2023-02-02T02:32:39.896Z,4.92
2023-02-02T02:35:55.774Z,5.00
2023-02-02T02:39:14.458Z,4.99
2023-02-02T02:42:22.365Z,5.02
2023-02-02T02:45:29.101Z,5.01
2023-02-02T02:48:34.314Z,5.02
2023-02-02T02:51:47.540Z,5.05
2023-02-02T02:54:57.519Z,5.07
2023-02-02T02:58:10.071Z,5.08
2023-02-02T03:01:20.712Z,5.12
2023-02-02T03:04:34.972Z,5.14
2023-02-02T03:07:43.333Z,5.16
2023-02-02T03:10:48.101Z,5.18
2023-02-02T03:13:51.703Z,5.16
2023-02-02T03:16:55.102Z,5.19
2023-02-02T03:19:59.643Z,5.21
2023-02-02T03:23:02.934Z,5.19
2023-02-02T03:26:07.168Z,5.28
2023-02-02T03:29:10.401Z,5.25
2023-02-02T03:32:13.795Z,5.23
2023-02-02T03:35:20.801Z,5.17
2023-02-02T03:38:24.043Z,5.20
2023-02-02T03:41:27.120Z,5.20
2023-02-02T03:44:30.167Z,5.16
2023-02-02T03:47:33.849Z,5.12
2023-02-02T03:50:38.481Z,5.12
2023-02-02T03:53:44.525Z,5.05
2023-02-02T03:56:47.582Z,5.09
2023-02-02T03:59:50.768Z,5.10
2023-02-02T04:02:55.713Z,5.13
2023-02-02T04:06:00.174Z,5.10
2023-02-02T04:09:03.275Z,5.08
2023-02-02T04:12:07.247Z,5.08
2023-02-02T04:15:10.785Z,5.09
2023-02-02T04:18:14.499Z,5.09
2023-02-02T04:21:19.156Z,5.08
2023-02-02T04:24:24.699Z,5.06
2023-02-02T04:27:27.804Z,5.06
2023-02-02T04:30:31.072Z,5.05
2023-02-02T04:33:35.819Z,5.08
2023-02-02T04:36:40.616Z,5.07
2023-02-02T04:39:44.002Z,5.08
2023-02-02T04:42:47.030Z,5.10
2023-02-02T04:45:57.260Z,5.08
2023-02-02T04:49:00.326Z,5.05
2023-02-02T04:52:05.103Z,5.01
2023-02-02T04:55:09.615Z,5.04
2023-02-02T04:58:12.833Z,5.06
2023-02-02T05:01:20.811Z,5.11
2023-02-02T05:04:24.159Z,5.06
2023-02-02T05:07:28.600Z,5.08
2023-02-02T05:10:32.826Z,5.12
2023-02-02T05:13:36.096Z,5.07
2023-02-02T05:16:40.208Z,5.03
2023-02-02T05:19:43.459Z,4.97
2023-02-02T05:22:50.076Z,4.89
2023-02-02T05:25:54.213Z,4.91
2023-02-02T05:28:58.327Z,4.91
2023-02-02T05:32:01.700Z,4.87
2023-02-02T05:35:05.562Z,4.84
2023-02-02T05:38:09.963Z,4.83
2023-02-02T05:41:13.343Z,4.80
2023-02-02T05:44:18.032Z,4.83
2023-02-02T05:47:21.768Z,4.84
2023-02-02T05:50:25.010Z,4.84
2023-02-02T05:53:40.057Z,4.85
2023-02-02T05:56:43.186Z,4.87
2023-02-02T05:59:47.181Z,4.89
2023-02-02T06:02:50.320Z,4.94
2023-02-02T06:05:53.479Z,4.94
2023-02-02T06:08:57.849Z,4.92
2023-02-02T06:12:01.108Z,4.87
2023-02-02T06:15:05.289Z,4.88
2023-02-02T06:18:08.669Z,4.90
2023-02-02T06:21:12.152Z,4.95
2023-02-02T06:24:18.056Z,4.94
2023-02-02T06:27:21.544Z,4.95
2023-02-02T06:30:24.823Z,4.97
2023-02-02T06:33:28.381Z,4.98
2023-02-02T06:36:31.394Z,5.02
2023-02-02T06:39:36.219Z,4.97
2023-02-02T06:42:39.393Z,4.98
2023-02-02T06:45:42.725Z,4.98
2023-02-02T06:48:48.833Z,4.94
2023-02-02T06:51:52.380Z,4.91
2023-02-02T06:55:02.802Z,4.92
2023-02-02T06:58:08.463Z,4.90
2023-02-02T07:01:15.738Z,4.87
2023-02-02T07:04:19.207Z,4.90
2023-02-02T07:07:25.195Z,4.93
2023-02-02T07:11:13.599Z,4.89
2023-02-02T07:13:54.557Z,4.87
2023-02-02T07:16:58.118Z,4.87
2023-02-02T07:20:01.745Z,4.94
2023-02-02T07:23:05.314Z,4.98
2023-02-02T07:26:13.399Z,4.92
2023-02-02T07:29:16.654Z,4.92
2023-02-02T07:32:19.748Z,4.95
2023-02-02T07:35:23.523Z,4.91
2023-02-02T07:38:29.458Z,4.93
2023-02-02T07:41:36.909Z,4.84
2023-02-02T07:44:40.230Z,4.75
2023-02-02T07:47:43.310Z,4.72
2023-02-02T07:50:47.573Z,4.72
2023-02-02T07:53:54.592Z,4.74
2023-02-02T07:57:00.985Z,4.71
2023-02-02T08:00:05.535Z,4.69
2023-02-02T08:03:15.411Z,4.71
2023-02-02T08:06:24.205Z,4.76
2023-02-02T08:09:27.287Z,4.82
2023-02-02T08:12:31.728Z,4.84
2023-02-02T08:15:34.924Z,4.89
2023-02-02T08:18:39.475Z,4.86
2023-02-02T08:21:45.326Z,4.89
2023-02-02T08:24:48.466Z,4.96
2023-02-02T08:27:58.321Z,4.98
2023-02-02T08:31:06.398Z,5.06
2023-02-02T08:34:09.779Z,5.06
2023-02-02T08:37:13.156Z,5.07
2023-02-02T08:40:16.676Z,5.09
2023-02-02T08:43:22.323Z,5.12
2023-02-02T08:46:25.953Z,5.14
2023-02-02T08:49:29.597Z,5.18
2023-02-02T08:52:32.751Z,5.17
2023-02-02T08:55:38.578Z,5.23
2023-02-02T08:58:46.626Z,5.21
2023-02-02T09:01:49.755Z,5.24
2023-02-02T09:04:52.871Z,5.32
2023-02-02T09:07:55.905Z,5.35
2023-02-02T09:11:08.100Z,5.50
2023-02-02T09:14:15.028Z,5.55
2023-02-02T09:17:18.913Z,5.66
2023-02-02T09:20:22.258Z,5.60
2023-02-02T09:23:26.023Z,5.58
2023-02-02T09:26:30.690Z,5.55
2023-02-02T09:29:35.671Z,5.58
2023-02-02T09:32:38.982Z,5.61
2023-02-02T09:35:42.161Z,5.67
2023-02-02T09:38:45.718Z,5.74
2023-02-02T09:42:14.320Z,5.77
2023-02-02T09:45:27.692Z,5.74
2023-02-02T09:48:39.895Z,5.79
2023-02-02T09:51:48.418Z,5.77
2023-02-02T09:54:58.853Z,5.87
2023-02-02T09:58:12.776Z,5.87
2023-02-02T10:01:21.642Z,5.98
2023-02-02T10:04:30.963Z,5.97
2023-02-02T10:07:39.457Z,5.94
2023-02-02T10:10:45.063Z,5.92
2023-02-02T10:13:49.760Z,5.89
2023-02-02T10:16:56.790Z,5.89
2023-02-02T10:20:13.234Z,5.90
2023-02-02T10:23:26.483Z,5.85
2023-02-02T10:26:39.250Z,5.84
2023-02-02T10:29:53.353Z,5.91
2023-02-02T10:33:09.914Z,5.88
2023-02-02T10:40:43.966Z,6.00
2023-02-02T10:44:17.710Z,6.12
2023-02-02T10:47:27.839Z,6.18
2023-02-02T10:50:32.349Z,6.28
2023-02-02T10:53:38.223Z,6.47
2023-02-02T10:56:49.196Z,6.30
2023-02-02T11:00:06.243Z,6.32
2023-02-02T11:03:12.535Z,6.27
2023-02-02T11:06:35.177Z,6.30
2023-02-02T11:09:42.032Z,6.30
2023-02-02T11:13:13.370Z,6.29
2023-02-02T11:16:41.575Z,6.28
2023-02-02T11:19:50.146Z,6.29
2023-02-02T11:23:03.761Z,6.45
2023-02-02T11:26:07.571Z,6.58
2023-02-02T11:29:27.805Z,6.79
2023-02-02T11:32:33.698Z,6.77
2023-02-02T11:35:39.141Z,6.59
2023-02-02T11:38:44.093Z,6.75
2023-02-02T11:41:47.855Z,6.62
2023-02-02T11:44:54.968Z,6.61
2023-02-02T11:48:04.659Z,6.76
2023-02-02T11:51:09.493Z,6.81
2023-02-02T11:54:28.956Z,6.77
2023-02-02T11:57:32.163Z,6.65
2023-02-02T12:00:57.261Z,6.60
2023-02-02T12:04:05.413Z,6.61
2023-02-02T12:07:26.750Z,6.64
2023-02-02T12:10:39.280Z,6.83
2023-02-02T12:14:00.792Z,6.87
2023-02-02T12:17:22.645Z,6.71
2023-02-02T12:20:40.565Z,6.50
2023-02-02T12:24:08.605Z,6.36
2023-02-02T12:27:31.590Z,6.29
2023-02-02T12:30:43.851Z,6.21
2023-02-02T12:33:55.593Z,6.00
2023-02-02T12:37:09.259Z,5.70
2023-02-02T12:40:31.040Z,5.61
2023-02-02T12:43:41.755Z,5.68
2023-02-02T12:46:59.656Z,5.74
2023-02-02T12:50:18.661Z,5.89
2023-02-02T12:53:38.880Z,6.11
2023-02-02T12:56:51.810Z,6.26
2023-02-02T13:00:14.326Z,6.35
2023-02-02T13:03:32.773Z,6.55
2023-02-02T13:07:02.558Z,6.59
2023-02-02T13:10:19.774Z,6.70
2023-02-02T13:13:28.328Z,6.78
2023-02-02T13:16:36.621Z,6.81
2023-02-02T13:19:43.593Z,6.96
2023-02-02T13:22:49.118Z,6.63
2023-02-02T13:25:58.925Z,6.46
2023-02-02T13:29:09.941Z,6.51
2023-02-02T13:32:25.603Z,6.49
2023-02-02T13:35:35.333Z,6.48
2023-02-02T13:38:42.192Z,6.48
2023-02-02T13:41:46.242Z,6.51
2023-02-02T13:44:54.781Z,6.50
2023-02-02T13:48:12.541Z,6.48
2023-02-02T13:51:51.174Z,6.38
2023-02-02T13:55:34.931Z,6.47
2023-02-02T13:59:06.410Z,6.33
2023-02-02T14:02:25.061Z,6.23
2023-02-02T14:05:34.979Z,6.23
2023-02-02T14:08:45.577Z,6.17
2023-02-02T14:12:01.645Z,6.01
2023-02-02T14:15:10.108Z,5.84
2023-02-02T14:18:13.961Z,5.74
2023-02-02T14:22:17.125Z,5.69
2023-02-02T14:25:55.347Z,5.62
2023-02-02T14:28:59.564Z,5.61
2023-02-02T14:32:32.401Z,5.54
2023-02-02T14:36:02.046Z,5.53
2023-02-02T14:39:22.406Z,5.43
2023-02-02T14:42:59.714Z,5.38
2023-02-02T14:46:27.792Z,5.33
2023-02-02T14:49:36.486Z,5.32
2023-02-02T14:52:39.940Z,5.33
2023-02-02T14:55:56.699Z,5.26
2023-02-02T14:59:02.481Z,5.29
2023-02-02T15:02:22.208Z,5.28
2023-02-02T15:05:46.579Z,5.23
2023-02-02T15:09:37.242Z,5.23
2023-02-02T15:12:46.251Z,5.16
2023-02-02T15:15:53.518Z,5.14
2023-02-02T15:19:07.705Z,5.08
2023-02-02T15:22:26.850Z,5.01
2023-02-02T15:25:35.349Z,4.95
2023-02-02T15:28:46.248Z,4.94
2023-02-02T15:31:54.485Z,4.85
2023-02-02T15:35:02.647Z,4.80
2023-02-02T15:38:15.205Z,4.76
2023-02-02T15:41:22.908Z,4.67
2023-02-02T15:44:31.951Z,4.62
2023-02-02T15:47:42.202Z,4.54
2023-02-02T15:50:47.399Z,4.45
2023-02-02T15:53:52.614Z,4.37
2023-02-02T15:56:57.219Z,4.30
2023-02-02T16:00:24.134Z,4.31
2023-02-02T16:03:36.119Z,4.25
2023-02-02T16:06:39.371Z,4.17
2023-02-02T16:09:43.203Z,4.11
2023-02-02T16:12:46.567Z,4.08
2023-02-02T16:15:58.987Z,4.06
2023-02-02T16:19:20.877Z,3.96
2023-02-02T16:22:25.441Z,3.87
2023-02-02T16:25:33.419Z,3.88
2023-02-02T16:28:37.033Z,3.82
2023-02-02T16:31:45.050Z,3.74
2023-02-02T16:34:48.906Z,3.69
2023-02-02T16:37:52.134Z,3.61
2023-02-02T16:41:07.921Z,3.52
2023-02-02T16:44:31.956Z,3.54
2023-02-02T16:47:39.554Z,3.56
2023-02-02T16:50:43.162Z,3.52
2023-02-02T16:53:49.800Z,3.52
2023-02-02T16:57:01.261Z,3.50
2023-02-02T17:00:09.106Z,3.48
2023-02-02T17:03:18.392Z,3.46
2023-02-02T17:06:41.715Z,3.46
2023-02-02T17:09:50.520Z,3.30
2023-02-02T17:12:54.775Z,3.30
2023-02-02T17:16:00.086Z,3.29
2023-02-02T17:19:04.951Z,3.24
2023-02-02T17:22:08.695Z,3.21
2023-02-02T17:25:17.089Z,3.08
2023-02-02T17:28:23.491Z,3.10
2023-02-02T17:31:26.929Z,3.05
2023-02-02T17:34:31.782Z,2.93
2023-02-02T17:37:35.093Z,2.86
2023-02-02T17:40:39.441Z,2.92
2023-02-02T17:43:43.633Z,2.95
2023-02-02T17:46:47.087Z,2.93
2023-02-02T17:49:51.562Z,2.95
2023-02-02T17:52:54.987Z,2.88
2023-02-02T17:55:58.174Z,2.80
2023-02-02T17:59:02.157Z,2.67
2023-02-02T18:02:05.446Z,2.53
2023-02-02T18:05:11.803Z,2.50
2023-02-02T18:08:15.799Z,2.60
2023-02-02T18:11:19.250Z,2.57
2023-02-02T18:14:22.400Z,2.58
2023-02-02T18:17:25.473Z,2.55
2023-02-02T18:20:29.915Z,2.43
2023-02-02T18:23:33.017Z,2.29
2023-02-02T18:26:36.522Z,2.14
2023-02-02T18:29:39.798Z,2.10
2023-02-02T18:32:43.365Z,2.06
2023-02-02T18:35:48.767Z,1.98
2023-02-02T18:38:53.980Z,1.83
2023-02-02T18:41:57.794Z,1.72
2023-02-02T18:45:01.814Z,1.66
2023-02-02T18:48:05.313Z,1.58
2023-02-02T18:51:15.849Z,1.59
2023-02-02T18:54:19.144Z,1.58
2023-02-02T18:57:22.646Z,1.49
2023-02-02T19:00:29.047Z,1.43
2023-02-02T19:03:34.157Z,1.42
2023-02-02T19:06:56.532Z,1.36
2023-02-02T19:10:00.322Z,1.28
2023-02-02T19:13:17.879Z,1.19
2023-02-02T19:16:26.586Z,1.11
2023-02-02T19:19:33.689Z,1.10
2023-02-02T19:22:39.849Z,1.05
2023-02-02T19:25:46.788Z,1.07
2023-02-02T19:28:51.343Z,0.98
2023-02-02T19:31:58.676Z,1.00
2023-02-02T19:35:02.688Z,0.98
2023-02-02T19:38:13.845Z,0.82
2023-02-02T19:41:21.694Z,0.78
2023-02-02T19:44:27.532Z,0.76
2023-02-02T19:47:33.853Z,0.72
2023-02-02T19:50:40.923Z,0.72
2023-02-02T19:53:45.502Z,0.76
2023-02-02T19:56:53.194Z,0.74
2023-02-02T20:00:00.187Z,0.79
2023-02-02T20:03:07.383Z,0.72
2023-02-02T20:06:17.587Z,0.78
2023-02-02T20:09:22.155Z,0.79
2023-02-02T20:12:29.873Z,0.76
2023-02-02T20:15:35.809Z,0.77
2023-02-02T20:18:43.641Z,0.80
2023-02-02T20:21:50.990Z,0.79
2023-02-02T20:24:56.898Z,0.78
2023-02-02T20:28:09.605Z,0.83
2023-02-02T20:31:17.320Z,0.82
2023-02-02T20:34:26.628Z,0.79
2023-02-02T20:38:52.850Z,0.74
2023-02-02T20:42:37.888Z,0.63
2023-02-02T20:46:29.816Z,0.69
2023-02-02T20:50:26.492Z,0.70
2023-02-02T20:54:20.752Z,0.71
2023-02-02T20:58:05.264Z,0.68
2023-02-02T21:02:18.255Z,0.65
2023-02-02T21:11:23.141Z,0.56
2023-02-02T21:14:22.735Z,0.56
2023-02-02T21:17:31.233Z,0.57
2023-02-02T21:20:34.694Z,0.58
2023-02-02T21:23:37.889Z,0.53
2023-02-02T21:26:40.990Z,0.56
2023-02-02T21:29:46.096Z,0.47
2023-02-02T21:32:49.381Z,0.46
2023-02-02T21:35:53.081Z,0.52
2023-02-02T21:39:06.386Z,0.49
2023-02-02T21:42:18.112Z,0.52
2023-02-02T21:45:35.539Z,0.47
2023-02-02T21:48:40.841Z,0.51
2023-02-02T21:51:47.628Z,0.49
2023-02-02T21:54:54.765Z,0.49
2023-02-02T21:58:06.830Z,0.45
2023-02-02T22:01:24.376Z,0.46
2023-02-02T22:04:29.463Z,0.46
2023-02-02T22:07:34.169Z,0.49
2023-02-02T22:10:39.610Z,0.49
2023-02-02T22:13:42.867Z,0.51
2023-02-02T22:16:57.017Z,0.53
2023-02-02T22:20:03.432Z,0.53
2023-02-02T22:23:12.262Z,0.58
2023-02-02T22:26:32.720Z,0.59
2023-02-02T22:29:37.557Z,0.69
2023-02-02T22:32:41.876Z,0.70
2023-02-02T22:35:46.253Z,0.77
2023-02-02T22:38:49.497Z,0.82
2023-02-02T22:41:52.939Z,0.88
2023-02-02T22:44:56.187Z,0.90
2023-02-02T22:48:02.222Z,0.92
2023-02-02T22:51:05.433Z,0.94
2023-02-02T22:54:08.514Z,0.97
2023-02-02T22:57:11.617Z,0.99
2023-02-02T23:00:18.512Z,1.03
2023-02-02T23:03:23.067Z,1.03
2023-02-02T23:06:26.289Z,1.04
2023-02-02T23:09:29.733Z,1.07
2023-02-02T23:12:34.784Z,1.07
2023-02-02T23:15:37.966Z,1.13
2023-02-02T23:18:42.337Z,1.13
2023-02-02T23:21:45.455Z,1.13
2023-02-02T23:24:48.716Z,1.18
2023-02-02T23:27:52.249Z,1.27
2023-02-02T23:30:59.183Z,1.28
2023-02-02T23:34:06.181Z,1.30
2023-02-02T23:37:09.413Z,1.32
2023-02-02T23:40:14.267Z,1.33
2023-02-02T23:43:17.783Z,1.34
2023-02-02T23:46:21.096Z,1.34
2023-02-02T23:49:29.480Z,1.36
2023-02-02T23:52:33.418Z,1.50
2023-02-02T23:55:37.286Z,1.50
2023-02-02T23:58:40.398Z,1.58
